Duncan, AZ

08:09 AM MST on Julyo 26, 2014 (GMT -0700)
Hideaway Observatory (KAZDUNCA2) Elev 3881 ft | 32.76 °N, 109.07 °W | Change Station

Current weather conditions updated 11 seconds ago

Clear
Clear
86.0 °F
Feels Like 83 °F
N
-
Hangin Variable Hangin from North

Today is forecast to be nearly the same temperature as yesterday.

Ngayon
High -- | Low -- °F
--% Chance of Precip.
Yesterday
High -- | Low -- °F
Precip. -- sa
5:26 AM 7:19 PM
Waning Crescent, 0% visible
Pwersa 29.86 sa
Paningin 10.0 milya
Mga Ulap Clear
HeatIndex 83 °F
Hamog 40 °F
Humidito 20%
Rainfall 0.00 sa
Snow Depth Not available.
UV 1 out of 12
Pollen 4.50 out of 12
Air Quality Not available.
Flu Activity Not available.
METAR KSAD 261351Z AUTO 27005KT 10SM CLR 26/15 A3004 RMK AO2 SLP110 T02610150

More Conditions Fewer Conditions

Pwersa 29.86 sa
Paningin 10.0 milya
Mga Ulap Clear
HeatIndex 83 °F
Hamog 40 °F
Humidito 20%
Rainfall 0.00 sa
Snow Depth Not available.
UV 1 out of 12
Pollen 4.50 out of 12
Air Quality Not available.
Flu Activity Not available.
METAR KSAD 261351Z AUTO 27005KT 10SM CLR 26/15 A3004 RMK AO2 SLP110 T02610150

More Conditions Fewer Conditions

10-Day Weather Forecast

Almanac

Astronomiya

Jul. 26, 2014 Rise Set
Actual Time 5:26 AM MST 7:19 PM MST
Civil Twilight 4:59 AM MST 7:46 PM MST
Nautical Twilight 4:26 AM MST 8:19 PM MST
Astronomical Twilight 3:50 AM MST 8:54 PM MST
Buwan 5:18 AM MST 7:00 PM MST
Length Of Visible Light 14h 47m
Haba ng Araw
13h 52m
Tomorrow will be 1m 21s shorter.
Waning Crescent, 0% of the Moon is Illuminated
Ngayon
Waning Crescent
Jul 26
New
Aug 3
Unang Quarter
Aug 10
Kabilugan ng Buwan
Aug 17
Last Quarter

Today's Extremes

State Highs State Lows

Community

WunderPhotos

Upload Photos

1,737,599 photos uploaded!

Nearby

Snow Depth

Station Depth Elevation
Beaver Head 0 in 7990 ft
Wildcat 0 in 7850 ft
Workman Creek 1 in 6900 ft
Mormon Mountain 0 in 7500 ft
White Horse Lake 0 in 7180 ft

Earthquake Activity

Siyudad Distance Mag. Time & Date
No recent earthquake activity has been reported nearby.
Minimum magnitude displayed is 2.5.

Coastal Water Temperatures

lugar Temparatura
No Stations Reporting

Nearby Weather Stations

Station Location Temp HeatIndex Hamog Humidito Hangin Precip. Elev Bago Type
Hideaway Observatory, Duncan, AZ 86.0 °F 83 °F 40 °F 20% North  at  - 0.00 sa / hr 3881 ft 8:09 AM MST Rapid Fire
York Valley, Duncan, AZ 88.0 °F 88 °F 60 °F 39% WNW  at  1.1 mph 0.00 sa / hr 3575 ft 8:09 AM MST Rapid Fire
RAWS GUTHRIE AZ, Morenci, AZ 77 °F 78 °F 51 °F 40% North  at  11 mph 0.00 sa / hr 6339 ft 7:03 AM MST MADIS

Show More Stations Show Fewer Stations